PWSweather.com
Personal Weather Stations
Station Observations
KJ4AJP
Beautiful Downtown Gardner, Martin, TN 38237

Beautiful Downtown GardnerMartin, TN 38237

Lat: 36.358, Lon: -88.8994

Elevation: 384.3

Station Type: TP1080WC

http://weather.mambm.com/

High Low Average
Temperature 35.6°F2.0°C 19.4°F-7.0°C 27.4°F-2.6°C
Dew Point 33.3°F0.7°C 16.6°F-8.6°C 25.6°F-3.6°C
Winds 8.3 mph 13.4 kmh Calm Calm 3.0 mph WSW4.8 kmh WSW
Wind Gusts 18.3 mph29.5 kmh 2.2 mph3.5 kmh 8.0 mph12.9 kmh
Humidity 99% 82% 93%
Pressure 30.51 in1033.2 mb 30.29 in1025.7 mb -
Precipitation 0.08 in2.0 mm - -
Hour Temp Dew Point Humidity Winds Wind Gusts Pressure Precip Precip Rate Daily Precip Total
12:00 AM 23.4°F-4.8°C 19.8°F-6.8°C 86% Calm Calm -- 30.39 in1029.1 mb 0.00 in0.0 mm 0.00 in0.0 mm 0.07 in1.8 mm
12:15 AM 23.4°F-4.8°C 20.1°F-6.6°C 87% Calm Calm -- 30.39 in1029.1 mb 0.00 in0.0 mm 0.00 in0.0 mm 0.07 in1.8 mm
12:30 AM 23.4°F-4.8°C 20.1°F-6.6°C 87% Calm Calm 0.7 mph1.1 kmh 30.38 in1028.8 mb 0.00 in0.0 mm 0.00 in0.0 mm 0.07 in1.8 mm
12:45 AM 23.4°F-4.8°C 20.4°F-6.4°C 88% 0.7 mph S1.1 kmh S 2.2 mph3.5 kmh 30.38 in1028.8 mb 0.00 in0.0 mm 0.00 in0.0 mm 0.07 in1.8 mm
01:00 AM 23.5°F-4.7°C 20.8°F-6.2°C 89% 1.6 mph SSE2.6 kmh SSE 3.1 mph5.0 kmh 30.36 in1028.1 mb 0.00 in0.0 mm 0.00 in0.0 mm 0.00 in0.0 mm
01:15 AM 23.4°F-4.8°C 20.6°F-6.3°C 89% 1.6 mph SE2.6 kmh SE 2.2 mph3.5 kmh 30.34 in1027.4 mb 0.00 in0.0 mm 0.00 in0.0 mm 0.00 in0.0 mm
01:30 AM 23.5°F-4.7°C 20.8°F-6.2°C 89% 2.2 mph SSE3.5 kmh SSE 5.4 mph8.7 kmh 30.34 in1027.4 mb 0.00 in0.0 mm 0.00 in0.0 mm 0.00 in0.0 mm
01:45 AM 23.9°F-4.5°C 20.9°F-6.2°C 88% 2.2 mph S3.5 kmh S 5.4 mph8.7 kmh 30.34 in1027.4 mb 0.00 in0.0 mm 0.00 in0.0 mm 0.00 in0.0 mm
02:00 AM 24.3°F-4.3°C 21.2°F-6.0°C 88% 2.2 mph S3.5 kmh S 4.5 mph7.2 kmh 30.34 in1027.4 mb 0.00 in0.0 mm 0.00 in0.0 mm 0.00 in0.0 mm
02:15 AM 24.3°F-4.3°C 21.0°F-6.1°C 87% 3.1 mph S5.0 kmh S 6.0 mph9.7 kmh 30.34 in1027.4 mb 0.00 in0.0 mm 0.00 in0.0 mm 0.00 in0.0 mm
02:30 AM 23.7°F-4.6°C 20.2°F-6.6°C 86% 0.7 mph S1.1 kmh S 3.8 mph6.1 kmh 30.34 in1027.4 mb 0.00 in0.0 mm 0.00 in0.0 mm 0.00 in0.0 mm
02:45 AM 23.7°F-4.6°C 20.4°F-6.4°C 87% 1.6 mph S2.6 kmh S 5.4 mph8.7 kmh 30.34 in1027.4 mb 0.00 in0.0 mm 0.00 in0.0 mm 0.00 in0.0 mm
03:00 AM 22.3°F-5.4°C 18.8°F-7.3°C 86% 0.7 mph S1.1 kmh S 3.8 mph6.1 kmh 30.34 in1027.4 mb 0.00 in0.0 mm 0.00 in0.0 mm 0.00 in0.0 mm
03:15 AM 21.4°F-5.9°C 18.2°F-7.7°C 87% 1.6 mph S2.6 kmh S 4.5 mph7.2 kmh 30.33 in1027.1 mb 0.00 in0.0 mm 0.00 in0.0 mm 0.00 in0.0 mm
03:30 AM 20.7°F-6.3°C 17.4°F-8.1°C 87% 2.2 mph SSE3.5 kmh SSE 6.0 mph9.7 kmh 30.33 in1027.1 mb 0.00 in0.0 mm 0.00 in0.0 mm 0.00 in0.0 mm
03:45 AM 20.1°F-6.6°C 16.9°F-8.4°C 87% 1.6 mph SSE2.6 kmh SSE 5.4 mph8.7 kmh 30.33 in1027.1 mb 0.00 in0.0 mm 0.00 in0.0 mm 0.00 in0.0 mm
04:00 AM 19.6°F-6.9°C 16.6°F-8.6°C 88% 2.2 mph S3.5 kmh S 5.4 mph8.7 kmh 30.33 in1027.1 mb 0.00 in0.0 mm 0.00 in0.0 mm 0.00 in0.0 mm
04:15 AM 19.8°F-6.8°C 16.8°F-8.4°C 88% 2.2 mph S3.5 kmh S 6.0 mph9.7 kmh 30.32 in1026.8 mb 0.00 in0.0 mm 0.00 in0.0 mm 0.00 in0.0 mm
04:30 AM 19.9°F-6.7°C 17.0°F-8.3°C 88% 2.2 mph SSE3.5 kmh SSE 6.9 mph11.1 kmh 30.32 in1026.8 mb 0.00 in0.0 mm 0.00 in0.0 mm 0.00 in0.0 mm
04:45 AM 20.3°F-6.5°C 17.6°F-8.0°C 89% 1.6 mph S2.6 kmh S 6.9 mph11.1 kmh 30.30 in1026.1 mb 0.00 in0.0 mm 0.00 in0.0 mm 0.00 in0.0 mm
05:00 AM 20.5°F-6.4°C 17.8°F-7.9°C 89% 2.2 mph S3.5 kmh S 6.0 mph9.7 kmh 30.32 in1026.8 mb 0.00 in0.0 mm 0.00 in0.0 mm 0.00 in0.0 mm
05:15 AM 20.1°F-6.6°C 17.2°F-8.2°C 88% 1.6 mph SSE2.6 kmh SSE 4.5 mph7.2 kmh 30.31 in1026.4 mb 0.00 in0.0 mm 0.00 in0.0 mm 0.00 in0.0 mm
05:30 AM 19.4°F-7.0°C 16.7°F-8.5°C 89% 2.2 mph SSE3.5 kmh SSE 6.9 mph11.1 kmh 30.29 in1025.7 mb 0.00 in0.0 mm 0.00 in0.0 mm 0.00 in0.0 mm
05:45 AM 19.4°F-7.0°C 16.7°F-8.5°C 89% 3.1 mph S5.0 kmh S 6.0 mph9.7 kmh 30.30 in1026.1 mb 0.00 in0.0 mm 0.00 in0.0 mm 0.00 in0.0 mm
06:00 AM 19.8°F-6.8°C 17.3°F-8.2°C 90% 3.1 mph S5.0 kmh S 6.9 mph11.1 kmh 30.30 in1026.1 mb 0.00 in0.0 mm 0.00 in0.0 mm 0.00 in0.0 mm
06:15 AM 20.3°F-6.5°C 18.1°F-7.7°C 91% 3.8 mph SE6.1 kmh SE 7.6 mph12.2 kmh 30.29 in1025.7 mb 0.00 in0.0 mm 0.00 in0.0 mm 0.00 in0.0 mm
06:30 AM 21.0°F-6.1°C 18.8°F-7.3°C 91% 5.4 mph S8.7 kmh S 9.2 mph14.8 kmh 30.29 in1025.7 mb 0.00 in0.0 mm 0.00 in0.0 mm 0.00 in0.0 mm
06:45 AM 21.9°F-5.6°C 19.7°F-6.8°C 91% 3.1 mph S5.0 kmh S 9.8 mph15.8 kmh 30.30 in1026.1 mb 0.00 in0.0 mm 0.00 in0.0 mm 0.00 in0.0 mm
07:00 AM 22.3°F-5.4°C 20.1°F-6.6°C 91% 4.5 mph S7.2 kmh S 11.4 mph18.3 kmh 30.30 in1026.1 mb 0.00 in0.0 mm 0.00 in0.0 mm 0.00 in0.0 mm
07:15 AM 22.6°F-5.2°C 20.7°F-6.3°C 92% 5.4 mph S8.7 kmh S 9.2 mph14.8 kmh 30.30 in1026.1 mb 0.00 in0.0 mm 0.00 in0.0 mm 0.00 in0.0 mm
07:30 AM 23.4°F-4.8°C 21.4°F-5.9°C 92% 4.5 mph S7.2 kmh S 10.7 mph17.2 kmh 30.30 in1026.1 mb 0.00 in0.0 mm 0.00 in0.0 mm 0.00 in0.0 mm
07:45 AM 24.3°F-4.3°C 22.3°F-5.4°C 92% 4.5 mph S7.2 kmh S 13.6 mph21.9 kmh 30.32 in1026.8 mb 0.00 in0.0 mm 0.00 in0.0 mm 0.00 in0.0 mm
08:00 AM 24.6°F-4.1°C 22.7°F-5.2°C 92% 6.9 mph S11.1 kmh S 9.2 mph14.8 kmh 30.31 in1026.4 mb 0.00 in0.0 mm 0.00 in0.0 mm 0.00 in0.0 mm
08:15 AM 25.0°F-3.9°C 23.0°F-5.0°C 92% 4.5 mph S7.2 kmh S 9.2 mph14.8 kmh 30.32 in1026.8 mb 0.00 in0.0 mm 0.00 in0.0 mm 0.00 in0.0 mm
08:30 AM 25.3°F-3.7°C 23.4°F-4.8°C 92% 5.4 mph S8.7 kmh S 14.5 mph23.3 kmh 30.32 in1026.8 mb 0.00 in0.0 mm 0.00 in0.0 mm 0.00 in0.0 mm
08:45 AM 25.7°F-3.5°C 23.7°F-4.6°C 92% 6.0 mph S9.7 kmh S 10.7 mph17.2 kmh 30.32 in1026.8 mb 0.00 in0.0 mm 0.00 in0.0 mm 0.00 in0.0 mm
09:00 AM 26.1°F-3.3°C 24.1°F-4.4°C 92% 4.5 mph S7.2 kmh S 13.0 mph20.9 kmh 30.32 in1026.8 mb 0.00 in0.0 mm 0.00 in0.0 mm 0.00 in0.0 mm
09:15 AM 26.8°F-2.9°C 24.8°F-4.0°C 92% 6.0 mph S9.7 kmh S 9.8 mph15.8 kmh 30.32 in1026.8 mb 0.00 in0.0 mm 0.00 in0.0 mm 0.00 in0.0 mm
09:30 AM 27.1°F-2.7°C 24.9°F-3.9°C 91% 2.2 mph SSW3.5 kmh SSW 8.3 mph13.4 kmh 30.34 in1027.4 mb 0.00 in0.0 mm 0.00 in0.0 mm 0.00 in0.0 mm
09:45 AM 28.0°F-2.2°C 25.8°F-3.4°C 91% 3.1 mph SSW5.0 kmh SSW 9.2 mph14.8 kmh 30.33 in1027.1 mb 0.00 in0.0 mm 0.00 in0.0 mm 0.00 in0.0 mm
10:00 AM 29.3°F-1.5°C 26.7°F-2.9°C 90% 3.1 mph SSW5.0 kmh SSW 7.6 mph12.2 kmh 30.33 in1027.1 mb 0.00 in0.0 mm 0.00 in0.0 mm 0.00 in0.0 mm
10:15 AM 30.9°F-0.6°C 28.3°F-2.1°C 90% 3.8 mph SW6.1 kmh SW 7.6 mph12.2 kmh 30.33 in1027.1 mb 0.00 in0.0 mm 0.00 in0.0 mm 0.00 in0.0 mm
10:30 AM 31.5°F-0.3°C 28.1°F-2.2°C 87% 3.8 mph SW6.1 kmh SW 9.2 mph14.8 kmh 30.33 in1027.1 mb 0.00 in0.0 mm 0.00 in0.0 mm 0.00 in0.0 mm
10:45 AM 31.8°F-0.1°C 28.1°F-2.2°C 86% 5.4 mph SSW8.7 kmh SSW 12.1 mph19.5 kmh 30.34 in1027.4 mb 0.00 in0.0 mm 0.00 in0.0 mm 0.00 in0.0 mm
11:00 AM 32.4°F0.2°C 28.4°F-2.0°C 85% 6.0 mph SW9.7 kmh SW 10.7 mph17.2 kmh 30.35 in1027.8 mb 0.00 in0.0 mm 0.00 in0.0 mm 0.00 in0.0 mm
11:15 AM 33.1°F0.6°C 29.1°F-1.6°C 85% 5.4 mph WSW8.7 kmh WSW 9.8 mph15.8 kmh 30.34 in1027.4 mb 0.00 in0.0 mm 0.00 in0.0 mm 0.00 in0.0 mm
11:30 AM 33.3°F0.7°C 29.3°F-1.5°C 85% 2.2 mph SW3.5 kmh SW 9.2 mph14.8 kmh 30.35 in1027.8 mb 0.01 in0.3 mm 0.04 in1.0 mm 0.01 in0.3 mm
11:45 AM 34.0°F1.1°C 29.7°F-1.3°C 84% 5.4 mph SW8.7 kmh SW 9.2 mph14.8 kmh 30.35 in1027.8 mb 0.01 in0.3 mm 0.00 in0.0 mm 0.01 in0.3 mm
12:00 PM 34.5°F1.4°C 30.2°F-1.0°C 84% 3.1 mph SW5.0 kmh SW 9.2 mph14.8 kmh 30.35 in1027.8 mb 0.01 in0.3 mm 0.00 in0.0 mm 0.01 in0.3 mm
12:15 PM 35.2°F1.8°C 30.6°F-0.8°C 83% 8.3 mph SW13.4 kmh SW 15.2 mph24.5 kmh 30.35 in1027.8 mb 0.01 in0.3 mm 0.00 in0.0 mm 0.01 in0.3 mm
12:30 PM 35.2°F1.8°C 30.3°F-0.9°C 82% 3.1 mph WSW5.0 kmh WSW 15.2 mph24.5 kmh 30.34 in1027.4 mb 0.00 in0.0 mm 0.00 in0.0 mm 0.01 in0.3 mm
12:45 PM 35.6°F2.0°C 30.7°F-0.7°C 82% 3.1 mph WSW5.0 kmh WSW 10.7 mph17.2 kmh 30.34 in1027.4 mb 0.01 in0.3 mm 0.04 in1.0 mm 0.02 in0.5 mm
01:00 PM 35.6°F2.0°C 30.7°F-0.7°C 82% 3.8 mph WSW6.1 kmh WSW 9.8 mph15.8 kmh 30.34 in1027.4 mb 0.01 in0.3 mm 0.00 in0.0 mm 0.02 in0.5 mm
01:15 PM 34.9°F1.6°C 30.6°F-0.8°C 84% 3.1 mph WSW5.0 kmh WSW 10.7 mph17.2 kmh 30.33 in1027.1 mb 0.01 in0.3 mm 0.00 in0.0 mm 0.02 in0.5 mm
01:30 PM 34.2°F1.2°C 30.7°F-0.7°C 87% 5.4 mph WSW8.7 kmh WSW 9.8 mph15.8 kmh 30.33 in1027.1 mb 0.01 in0.3 mm 0.00 in0.0 mm 0.02 in0.5 mm
01:45 PM 33.3°F0.7°C 30.9°F-0.6°C 91% 3.8 mph WSW6.1 kmh WSW 12.1 mph19.5 kmh 30.32 in1026.8 mb 0.00 in0.0 mm 0.00 in0.0 mm 0.02 in0.5 mm
02:00 PM 32.9°F0.5°C 31.1°F-0.5°C 93% 2.2 mph WSW3.5 kmh WSW 7.6 mph12.2 kmh 30.32 in1026.8 mb 0.00 in0.0 mm 0.00 in0.0 mm 0.02 in0.5 mm
02:15 PM 32.7°F0.4°C 31.2°F-0.4°C 94% 0.7 mph W1.1 kmh W 5.4 mph8.7 kmh 30.32 in1026.8 mb 0.00 in0.0 mm 0.00 in0.0 mm 0.02 in0.5 mm
02:30 PM 32.5°F0.3°C 31.3°F-0.4°C 95% 0.7 mph W1.1 kmh W 4.5 mph7.2 kmh 30.32 in1026.8 mb 0.00 in0.0 mm 0.00 in0.0 mm 0.02 in0.5 mm
02:45 PM 32.7°F0.4°C 31.7°F-0.2°C 96% 3.1 mph WSW5.0 kmh WSW 6.9 mph11.1 kmh 30.34 in1027.4 mb 0.00 in0.0 mm 0.00 in0.0 mm 0.02 in0.5 mm
03:00 PM 32.7°F0.4°C 32.0°F0.0°C 97% 3.8 mph WSW6.1 kmh WSW 7.6 mph12.2 kmh 30.34 in1027.4 mb 0.02 in0.5 mm 0.03 in0.8 mm 0.05 in1.3 mm
03:15 PM 33.1°F0.6°C 32.6°F0.3°C 98% 2.2 mph WSW3.5 kmh WSW 5.4 mph8.7 kmh 30.34 in1027.4 mb 0.04 in1.0 mm 0.08 in2.0 mm 0.06 in1.5 mm
03:30 PM 33.6°F0.9°C 33.1°F0.6°C 98% Calm Calm 4.5 mph7.2 kmh 30.34 in1027.4 mb 0.05 in1.3 mm 0.04 in1.0 mm 0.07 in1.8 mm
03:45 PM 33.8°F1.0°C 33.3°F0.7°C 98% 0.7 mph WSW1.1 kmh WSW 4.5 mph7.2 kmh 30.34 in1027.4 mb 0.05 in1.3 mm 0.00 in0.0 mm 0.07 in1.8 mm
04:00 PM 33.8°F1.0°C 33.3°F0.7°C 98% 2.2 mph WSW3.5 kmh WSW 3.8 mph6.1 kmh 30.34 in1027.4 mb 0.02 in0.5 mm 0.00 in0.0 mm 0.07 in1.8 mm
04:15 PM 33.4°F0.8°C 32.9°F0.5°C 98% 1.6 mph WSW2.6 kmh WSW 3.8 mph6.1 kmh 30.34 in1027.4 mb 0.01 in0.3 mm 0.00 in0.0 mm 0.07 in1.8 mm
04:30 PM 33.3°F0.7°C 32.8°F0.4°C 98% 0.7 mph SW1.1 kmh SW 5.4 mph8.7 kmh 30.34 in1027.4 mb 0.01 in0.3 mm 0.00 in0.0 mm 0.08 in2.0 mm
04:45 PM 33.1°F0.6°C 32.8°F0.4°C 99% 2.2 mph WSW3.5 kmh WSW 5.4 mph8.7 kmh 30.35 in1027.8 mb 0.01 in0.3 mm 0.00 in0.0 mm 0.08 in2.0 mm
05:00 PM 32.7°F0.4°C 32.5°F0.3°C 99% 0.7 mph WSW1.1 kmh WSW 4.5 mph7.2 kmh 30.36 in1028.1 mb 0.01 in0.3 mm 0.00 in0.0 mm 0.08 in2.0 mm
05:15 PM 32.5°F0.3°C 32.3°F0.2°C 99% 1.6 mph WSW2.6 kmh WSW 3.8 mph6.1 kmh 30.36 in1028.1 mb 0.01 in0.3 mm 0.00 in0.0 mm 0.08 in2.0 mm
05:30 PM 32.5°F0.3°C 32.3°F0.2°C 99% Calm Calm 2.2 mph3.5 kmh 30.37 in1028.4 mb 0.00 in0.0 mm 0.00 in0.0 mm 0.08 in2.0 mm
05:45 PM 32.2°F0.1°C 31.9°F-0.1°C 99% Calm Calm 5.4 mph8.7 kmh 30.37 in1028.4 mb 0.00 in0.0 mm 0.00 in0.0 mm 0.08 in2.0 mm
06:00 PM 32.0°F0.0°C 31.8°F-0.1°C 99% Calm Calm 3.1 mph5.0 kmh 30.38 in1028.8 mb 0.00 in0.0 mm 0.00 in0.0 mm 0.08 in2.0 mm
06:15 PM 31.6°F-0.2°C 31.4°F-0.3°C 99% Calm Calm 2.2 mph3.5 kmh 30.38 in1028.8 mb 0.00 in0.0 mm 0.00 in0.0 mm 0.08 in2.0 mm
06:30 PM 31.5°F-0.3°C 31.2°F-0.4°C 99% Calm Calm 2.2 mph3.5 kmh 30.38 in1028.8 mb 0.00 in0.0 mm 0.00 in0.0 mm 0.08 in2.0 mm
06:45 PM 31.5°F-0.3°C 31.2°F-0.4°C 99% Calm Calm 3.1 mph5.0 kmh 30.39 in1029.1 mb 0.00 in0.0 mm 0.00 in0.0 mm 0.08 in2.0 mm
07:00 PM 31.3°F-0.4°C 31.0°F-0.6°C 99% 1.6 mph NW2.6 kmh NW 3.8 mph6.1 kmh 30.39 in1029.1 mb 0.00 in0.0 mm 0.00 in0.0 mm 0.08 in2.0 mm
07:15 PM 31.1°F-0.5°C 30.9°F-0.6°C 99% 1.6 mph NW2.6 kmh NW 3.8 mph6.1 kmh 30.38 in1028.8 mb 0.00 in0.0 mm 0.00 in0.0 mm 0.08 in2.0 mm
07:30 PM 30.6°F-0.8°C 30.3°F-0.9°C 99% 0.7 mph NW1.1 kmh NW 4.5 mph7.2 kmh 30.40 in1029.5 mb 0.00 in0.0 mm 0.00 in0.0 mm 0.08 in2.0 mm
07:45 PM 30.4°F-0.9°C 30.1°F-1.1°C 99% Calm Calm 3.8 mph6.1 kmh 30.39 in1029.1 mb 0.00 in0.0 mm 0.00 in0.0 mm 0.08 in2.0 mm
08:00 PM 30.2°F-1.0°C 30.0°F-1.1°C 99% Calm Calm 2.2 mph3.5 kmh 30.40 in1029.5 mb 0.00 in0.0 mm 0.00 in0.0 mm 0.08 in2.0 mm
08:15 PM 30.0°F-1.1°C 29.8°F-1.2°C 99% Calm Calm 2.2 mph3.5 kmh 30.40 in1029.5 mb 0.00 in0.0 mm 0.00 in0.0 mm 0.08 in2.0 mm
08:30 PM 29.8°F-1.2°C 29.6°F-1.3°C 99% 0.7 mph NW1.1 kmh NW 3.1 mph5.0 kmh 30.40 in1029.5 mb 0.00 in0.0 mm 0.00 in0.0 mm 0.08 in2.0 mm
08:45 PM 29.5°F-1.4°C 29.2°F-1.6°C 99% 3.1 mph NW5.0 kmh NW 9.2 mph14.8 kmh 30.42 in1030.1 mb 0.00 in0.0 mm 0.00 in0.0 mm 0.08 in2.0 mm
09:00 PM 28.0°F-2.2°C 27.8°F-2.3°C 99% 3.8 mph N6.1 kmh N 11.4 mph18.3 kmh 30.43 in1030.5 mb 0.00 in0.0 mm 0.00 in0.0 mm 0.08 in2.0 mm
09:15 PM 27.1°F-2.7°C 26.9°F-2.8°C 99% 2.2 mph NNW3.5 kmh NNW 9.2 mph14.8 kmh 30.43 in1030.5 mb 0.00 in0.0 mm 0.00 in0.0 mm 0.08 in2.0 mm
09:30 PM 26.8°F-2.9°C 26.6°F-3.0°C 99% 1.6 mph NNW2.6 kmh NNW 6.0 mph9.7 kmh 30.44 in1030.8 mb 0.00 in0.0 mm 0.00 in0.0 mm 0.08 in2.0 mm
09:45 PM 26.2°F-3.2°C 26.0°F-3.3°C 99% 3.1 mph NNW5.0 kmh NNW 12.1 mph19.5 kmh 30.45 in1031.2 mb 0.00 in0.0 mm 0.00 in0.0 mm 0.08 in2.0 mm
10:00 PM 25.3°F-3.7°C 25.1°F-3.8°C 99% 3.8 mph NW6.1 kmh NW 9.8 mph15.8 kmh 30.45 in1031.2 mb 0.00 in0.0 mm 0.00 in0.0 mm 0.08 in2.0 mm
10:15 PM 24.8°F-4.0°C 24.6°F-4.1°C 99% 1.6 mph NW2.6 kmh NW 6.9 mph11.1 kmh 30.47 in1031.8 mb 0.00 in0.0 mm 0.00 in0.0 mm 0.08 in2.0 mm
10:30 PM 24.4°F-4.2°C 24.2°F-4.3°C 99% 7.6 mph N12.2 kmh N 15.2 mph24.5 kmh 30.47 in1031.8 mb 0.00 in0.0 mm 0.00 in0.0 mm 0.08 in2.0 mm
10:45 PM 23.9°F-4.5°C 23.7°F-4.6°C 99% 7.6 mph N12.2 kmh N 13.6 mph21.9 kmh 30.48 in1032.2 mb 0.00 in0.0 mm 0.00 in0.0 mm 0.08 in2.0 mm
11:00 PM 23.7°F-4.6°C 23.5°F-4.7°C 99% 3.1 mph NNW5.0 kmh NNW 6.9 mph11.1 kmh 30.48 in1032.2 mb 0.00 in0.0 mm 0.00 in0.0 mm 0.08 in2.0 mm
11:15 PM 23.4°F-4.8°C 23.1°F-4.9°C 99% 2.2 mph NW3.5 kmh NW 7.6 mph12.2 kmh 30.48 in1032.2 mb 0.00 in0.0 mm 0.00 in0.0 mm 0.08 in2.0 mm
11:30 PM 23.2°F-4.9°C 23.0°F-5.0°C 99% 4.5 mph NNW7.2 kmh NNW 8.3 mph13.4 kmh 30.48 in1032.2 mb 0.00 in0.0 mm 0.00 in0.0 mm 0.08 in2.0 mm
11:45 PM 22.6°F-5.2°C 22.4°F-5.3°C 99% 4.5 mph N7.2 kmh N 12.1 mph19.5 kmh 30.49 in1032.5 mb 0.00 in0.0 mm 0.00 in0.0 mm 0.08 in2.0 mm